sensor_id;sensor_type;location;lat;lon;timestamp;P1;durP1;ratioP1;P2;durP2;ratioP2
25125;SDS011;13106;50.808;5.670;2022-09-09T00:02:14;2.92;;;0.80;;
25125;SDS011;13106;50.808;5.670;2022-09-09T00:04:45;2.30;;;0.70;;
25125;SDS011;13106;50.808;5.670;2022-09-09T00:09:48;1.55;;;0.80;;
25125;SDS011;13106;50.808;5.670;2022-09-09T00:12:25;3.85;;;0.73;;
25125;SDS011;13106;50.808;5.670;2022-09-09T00:15:00;2.60;;;1.60;;
25125;SDS011;13106;50.808;5.670;2022-09-09T00:25:32;3.45;;;1.33;;
25125;SDS011;13106;50.808;5.670;2022-09-09T00:28:01;3.85;;;0.80;;
25125;SDS011;13106;50.808;5.670;2022-09-09T00:30:30;2.15;;;0.98;;
25125;SDS011;13106;50.808;5.670;2022-09-09T00:33:12;4.13;;;1.15;;
25125;SDS011;13106;50.808;5.670;2022-09-09T00:35:42;3.15;;;0.80;;
25125;SDS011;13106;50.808;5.670;2022-09-09T00:38:10;3.85;;;1.13;;
25125;SDS011;13106;50.808;5.670;2022-09-09T00:40:45;1.83;;;1.10;;
25125;SDS011;13106;50.808;5.670;2022-09-09T00:43:28;4.68;;;1.15;;
25125;SDS011;13106;50.808;5.670;2022-09-09T00:48:48;2.92;;;1.00;;
25125;SDS011;13106;50.808;5.670;2022-09-09T00:51:25;1.50;;;0.82;;
25125;SDS011;13106;50.808;5.670;2022-09-09T00:56:23;5.72;;;1.10;;
25125;SDS011;13106;50.808;5.670;2022-09-09T01:01:23;4.88;;;1.38;;
25125;SDS011;13106;50.808;5.670;2022-09-09T01:03:52;4.50;;;1.30;;
25125;SDS011;13106;50.808;5.670;2022-09-09T01:06:34;5.47;;;1.80;;
25125;SDS011;13106;50.808;5.670;2022-09-09T01:14:35;3.40;;;1.10;;
25125;SDS011;13106;50.808;5.670;2022-09-09T01:22:15;3.20;;;0.93;;
25125;SDS011;13106;50.808;5.670;2022-09-09T01:24:54;4.53;;;1.00;;
25125;SDS011;13106;50.808;5.670;2022-09-09T01:27:21;4.43;;;1.92;;
25125;SDS011;13106;50.808;5.670;2022-09-09T01:29:50;3.75;;;1.48;;
25125;SDS011;13106;50.808;5.670;2022-09-09T01:35:01;4.80;;;1.20;;
25125;SDS011;13106;50.808;5.670;2022-09-09T01:37:27;3.95;;;1.20;;
25125;SDS011;13106;50.808;5.670;2022-09-09T01:39:53;3.35;;;1.17;;
25125;SDS011;13106;50.808;5.670;2022-09-09T01:42:19;4.72;;;1.45;;
25125;SDS011;13106;50.808;5.670;2022-09-09T01:44:46;4.22;;;1.10;;
25125;SDS011;13106;50.808;5.670;2022-09-09T01:47:12;3.40;;;1.27;;
25125;SDS011;13106;50.808;5.670;2022-09-09T01:49:38;5.40;;;1.30;;
25125;SDS011;13106;50.808;5.670;2022-09-09T01:52:04;5.45;;;1.50;;
25125;SDS011;13106;50.808;5.670;2022-09-09T01:54:31;5.13;;;1.20;;
25125;SDS011;13106;50.808;5.670;2022-09-09T02:02:19;2.45;;;1.05;;
25125;SDS011;13106;50.808;5.670;2022-09-09T02:04:49;6.60;;;1.70;;
25125;SDS011;13106;50.808;5.670;2022-09-09T02:09:52;6.88;;;1.40;;
25125;SDS011;13106;50.808;5.670;2022-09-09T02:12:21;8.57;;;1.58;;
25125;SDS011;13106;50.808;5.670;2022-09-09T02:14:50;3.88;;;1.42;;
25125;SDS011;13106;50.808;5.670;2022-09-09T02:17:23;5.47;;;1.42;;
25125;SDS011;13106;50.808;5.670;2022-09-09T02:19:53;5.90;;;1.30;;
25125;SDS011;13106;50.808;5.670;2022-09-09T02:24:46;4.75;;;1.50;;
25125;SDS011;13106;50.808;5.670;2022-09-09T02:27:13;7.70;;;1.75;;
25125;SDS011;13106;50.808;5.670;2022-09-09T02:29:41;5.63;;;1.67;;
25125;SDS011;13106;50.808;5.670;2022-09-09T02:32:09;7.55;;;2.13;;
25125;SDS011;13106;50.808;5.670;2022-09-09T02:34:39;7.68;;;1.70;;
25125;SDS011;13106;50.808;5.670;2022-09-09T02:37:06;8.13;;;1.65;;
25125;SDS011;13106;50.808;5.670;2022-09-09T02:39:33;5.97;;;1.58;;
25125;SDS011;13106;50.808;5.670;2022-09-09T02:41:59;5.00;;;1.70;;
25125;SDS011;13106;50.808;5.670;2022-09-09T02:44:25;7.50;;;1.55;;
25125;SDS011;13106;50.808;5.670;2022-09-09T02:46:57;6.22;;;1.98;;
25125;SDS011;13106;50.808;5.670;2022-09-09T02:54:29;3.53;;;1.27;;
25125;SDS011;13106;50.808;5.670;2022-09-09T02:56:58;5.55;;;1.40;;
25125;SDS011;13106;50.808;5.670;2022-09-09T02:59:27;4.47;;;1.60;;
25125;SDS011;13106;50.808;5.670;2022-09-09T03:01:54;4.28;;;1.45;;
25125;SDS011;13106;50.808;5.670;2022-09-09T03:04:20;7.15;;;1.70;;
25125;SDS011;13106;50.808;5.670;2022-09-09T03:06:46;3.92;;;1.50;;
25125;SDS011;13106;50.808;5.670;2022-09-09T03:09:12;6.05;;;1.40;;
25125;SDS011;13106;50.808;5.670;2022-09-09T03:11:38;3.17;;;1.40;;
25125;SDS011;13106;50.808;5.670;2022-09-09T03:14:04;7.82;;;1.80;;
25125;SDS011;13106;50.808;5.670;2022-09-09T03:16:31;7.85;;;1.60;;
25125;SDS011;13106;50.808;5.670;2022-09-09T03:18:59;7.45;;;1.50;;
25125;SDS011;13106;50.808;5.670;2022-09-09T03:21:25;6.35;;;2.05;;
25125;SDS011;13106;50.808;5.670;2022-09-09T03:23:51;3.88;;;1.23;;
25125;SDS011;13106;50.808;5.670;2022-09-09T03:26:17;5.07;;;1.70;;
25125;SDS011;13106;50.808;5.670;2022-09-09T03:28:43;4.35;;;1.45;;
25125;SDS011;13106;50.808;5.670;2022-09-09T03:31:10;7.85;;;1.80;;
25125;SDS011;13106;50.808;5.670;2022-09-09T03:33:36;5.93;;;1.60;;
25125;SDS011;13106;50.808;5.670;2022-09-09T03:36:03;6.53;;;1.40;;
25125;SDS011;13106;50.808;5.670;2022-09-09T03:38:29;7.80;;;1.65;;
25125;SDS011;13106;50.808;5.670;2022-09-09T03:40:56;3.67;;;1.45;;
25125;SDS011;13106;50.808;5.670;2022-09-09T03:43:25;7.90;;;2.03;;
25125;SDS011;13106;50.808;5.670;2022-09-09T03:45:52;4.63;;;1.67;;
25125;SDS011;13106;50.808;5.670;2022-09-09T03:48:18;8.57;;;1.60;;
25125;SDS011;13106;50.808;5.670;2022-09-09T03:50:51;5.32;;;1.88;;
25125;SDS011;13106;50.808;5.670;2022-09-09T03:53:18;11.38;;;1.92;;
25125;SDS011;13106;50.808;5.670;2022-09-09T03:55:45;6.18;;;1.70;;
25125;SDS011;13106;50.808;5.670;2022-09-09T03:58:13;5.35;;;1.73;;
25125;SDS011;13106;50.808;5.670;2022-09-09T04:00:39;6.28;;;1.30;;
25125;SDS011;13106;50.808;5.670;2022-09-09T04:03:09;4.95;;;1.20;;
25125;SDS011;13106;50.808;5.670;2022-09-09T04:05:36;5.03;;;1.40;;
25125;SDS011;13106;50.808;5.670;2022-09-09T04:08:07;6.75;;;1.55;;
25125;SDS011;13106;50.808;5.670;2022-09-09T04:10:33;5.38;;;1.40;;
25125;SDS011;13106;50.808;5.670;2022-09-09T04:13:02;2.92;;;1.30;;
25125;SDS011;13106;50.808;5.670;2022-09-09T04:15:28;11.88;;;1.58;;
25125;SDS011;13106;50.808;5.670;2022-09-09T04:17:55;6.75;;;1.73;;
25125;SDS011;13106;50.808;5.670;2022-09-09T04:20:21;7.68;;;1.27;;
25125;SDS011;13106;50.808;5.670;2022-09-09T04:22:47;8.68;;;1.50;;
25125;SDS011;13106;50.808;5.670;2022-09-09T04:25:13;4.47;;;1.35;;
25125;SDS011;13106;50.808;5.670;2022-09-09T04:27:40;6.32;;;1.33;;
25125;SDS011;13106;50.808;5.670;2022-09-09T04:30:08;5.13;;;1.30;;
25125;SDS011;13106;50.808;5.670;2022-09-09T04:32:34;3.58;;;1.25;;
25125;SDS011;13106;50.808;5.670;2022-09-09T04:35:02;5.60;;;1.55;;
25125;SDS011;13106;50.808;5.670;2022-09-09T04:37:28;9.35;;;1.90;;
25125;SDS011;13106;50.808;5.670;2022-09-09T04:39:54;9.13;;;1.90;;
25125;SDS011;13106;50.808;5.670;2022-09-09T04:42:20;6.68;;;1.45;;
25125;SDS011;13106;50.808;5.670;2022-09-09T04:44:47;5.40;;;1.55;;
25125;SDS011;13106;50.808;5.670;2022-09-09T04:47:13;7.20;;;1.98;;
25125;SDS011;13106;50.808;5.670;2022-09-09T04:49:39;9.05;;;2.25;;
25125;SDS011;13106;50.808;5.670;2022-09-09T04:52:06;4.68;;;1.45;;
25125;SDS011;13106;50.808;5.670;2022-09-09T04:54:32;4.82;;;1.38;;
25125;SDS011;13106;50.808;5.670;2022-09-09T04:56:58;9.55;;;1.75;;
25125;SDS011;13106;50.808;5.670;2022-09-09T04:59:24;5.43;;;1.63;;
25125;SDS011;13106;50.808;5.670;2022-09-09T05:01:50;5.32;;;1.60;;
25125;SDS011;13106;50.808;5.670;2022-09-09T05:04:16;6.38;;;1.40;;
25125;SDS011;13106;50.808;5.670;2022-09-09T05:06:42;5.18;;;1.80;;
25125;SDS011;13106;50.808;5.670;2022-09-09T05:09:08;9.68;;;1.80;;
25125;SDS011;13106;50.808;5.670;2022-09-09T05:11:34;7.55;;;1.50;;
25125;SDS011;13106;50.808;5.670;2022-09-09T05:14:03;6.75;;;1.70;;
25125;SDS011;13106;50.808;5.670;2022-09-09T05:16:30;7.97;;;2.13;;
25125;SDS011;13106;50.808;5.670;2022-09-09T05:18:56;9.95;;;1.83;;
25125;SDS011;13106;50.808;5.670;2022-09-09T05:21:23;8.00;;;1.40;;
25125;SDS011;13106;50.808;5.670;2022-09-09T05:23:53;7.40;;;2.10;;
25125;SDS011;13106;50.808;5.670;2022-09-09T05:26:20;11.25;;;2.00;;
25125;SDS011;13106;50.808;5.670;2022-09-09T05:28:46;6.35;;;1.95;;
25125;SDS011;13106;50.808;5.670;2022-09-09T05:31:13;6.00;;;1.95;;
25125;SDS011;13106;50.808;5.670;2022-09-09T05:33:40;7.30;;;1.95;;
25125;SDS011;13106;50.808;5.670;2022-09-09T05:36:08;6.68;;;1.67;;
25125;SDS011;13106;50.808;5.670;2022-09-09T05:38:36;9.00;;;1.88;;
25125;SDS011;13106;50.808;5.670;2022-09-09T05:41:03;6.03;;;1.60;;
25125;SDS011;13106;50.808;5.670;2022-09-09T05:43:29;8.32;;;1.98;;
25125;SDS011;13106;50.808;5.670;2022-09-09T05:46:03;8.13;;;1.80;;
25125;SDS011;13106;50.808;5.670;2022-09-09T05:48:39;8.45;;;1.65;;
25125;SDS011;13106;50.808;5.670;2022-09-09T05:51:06;7.75;;;1.70;;
25125;SDS011;13106;50.808;5.670;2022-09-09T05:53:34;6.55;;;1.63;;
25125;SDS011;13106;50.808;5.670;2022-09-09T05:56:00;6.38;;;1.80;;
25125;SDS011;13106;50.808;5.670;2022-09-09T05:58:28;9.40;;;1.90;;
25125;SDS011;13106;50.808;5.670;2022-09-09T06:00:59;11.73;;;1.92;;
25125;SDS011;13106;50.808;5.670;2022-09-09T06:03:26;5.85;;;1.80;;
25125;SDS011;13106;50.808;5.670;2022-09-09T06:06:02;10.15;;;2.10;;
25125;SDS011;13106;50.808;5.670;2022-09-09T06:08:30;12.40;;;2.03;;
25125;SDS011;13106;50.808;5.670;2022-09-09T06:11:03;11.23;;;2.05;;
25125;SDS011;13106;50.808;5.670;2022-09-09T06:13:29;11.35;;;1.85;;
25125;SDS011;13106;50.808;5.670;2022-09-09T06:15:55;7.45;;;1.90;;
25125;SDS011;13106;50.808;5.670;2022-09-09T06:18:21;9.30;;;1.67;;
25125;SDS011;13106;50.808;5.670;2022-09-09T06:20:57;9.63;;;1.88;;
25125;SDS011;13106;50.808;5.670;2022-09-09T06:23:24;8.70;;;1.75;;
25125;SDS011;13106;50.808;5.670;2022-09-09T06:25:51;6.75;;;1.42;;
25125;SDS011;13106;50.808;5.670;2022-09-09T06:28:17;12.43;;;1.80;;
25125;SDS011;13106;50.808;5.670;2022-09-09T06:30:44;9.43;;;2.13;;
25125;SDS011;13106;50.808;5.670;2022-09-09T06:33:10;12.85;;;2.50;;
25125;SDS011;13106;50.808;5.670;2022-09-09T06:35:36;9.63;;;1.83;;
25125;SDS011;13106;50.808;5.670;2022-09-09T06:38:02;10.07;;;1.88;;
25125;SDS011;13106;50.808;5.670;2022-09-09T06:40:28;10.18;;;1.80;;
25125;SDS011;13106;50.808;5.670;2022-09-09T06:42:58;6.82;;;1.55;;
25125;SDS011;13106;50.808;5.670;2022-09-09T06:45:25;9.13;;;1.70;;
25125;SDS011;13106;50.808;5.670;2022-09-09T06:47:51;7.78;;;1.77;;
25125;SDS011;13106;50.808;5.670;2022-09-09T06:50:17;7.50;;;1.90;;
25125;SDS011;13106;50.808;5.670;2022-09-09T06:52:45;11.27;;;1.95;;
25125;SDS011;13106;50.808;5.670;2022-09-09T06:55:12;7.17;;;1.80;;
25125;SDS011;13106;50.808;5.670;2022-09-09T06:57:40;6.72;;;1.75;;
25125;SDS011;13106;50.808;5.670;2022-09-09T07:00:07;11.48;;;2.28;;
25125;SDS011;13106;50.808;5.670;2022-09-09T07:02:33;7.88;;;1.90;;
25125;SDS011;13106;50.808;5.670;2022-09-09T07:05:03;10.57;;;2.33;;
25125;SDS011;13106;50.808;5.670;2022-09-09T07:07:30;7.72;;;2.42;;
25125;SDS011;13106;50.808;5.670;2022-09-09T07:09:56;7.90;;;1.95;;
25125;SDS011;13106;50.808;5.670;2022-09-09T07:12:22;9.57;;;2.47;;
25125;SDS011;13106;50.808;5.670;2022-09-09T07:14:48;6.28;;;1.85;;
25125;SDS011;13106;50.808;5.670;2022-09-09T07:17:14;12.25;;;3.08;;
25125;SDS011;13106;50.808;5.670;2022-09-09T07:19:40;9.32;;;1.95;;
25125;SDS011;13106;50.808;5.670;2022-09-09T07:22:07;13.27;;;2.28;;
25125;SDS011;13106;50.808;5.670;2022-09-09T07:24:34;8.63;;;1.85;;
25125;SDS011;13106;50.808;5.670;2022-09-09T07:27:00;9.52;;;2.20;;
25125;SDS011;13106;50.808;5.670;2022-09-09T07:29:26;7.65;;;2.15;;
25125;SDS011;13106;50.808;5.670;2022-09-09T07:31:52;8.90;;;2.50;;
25125;SDS011;13106;50.808;5.670;2022-09-09T07:34:18;15.48;;;2.50;;
25125;SDS011;13106;50.808;5.670;2022-09-09T07:36:44;9.02;;;2.00;;
25125;SDS011;13106;50.808;5.670;2022-09-09T07:39:11;8.40;;;2.10;;
25125;SDS011;13106;50.808;5.670;2022-09-09T07:41:40;10.32;;;3.08;;
25125;SDS011;13106;50.808;5.670;2022-09-09T07:44:07;6.78;;;1.80;;
25125;SDS011;13106;50.808;5.670;2022-09-09T07:46:34;9.48;;;1.90;;
25125;SDS011;13106;50.808;5.670;2022-09-09T07:49:01;5.97;;;1.88;;
25125;SDS011;13106;50.808;5.670;2022-09-09T07:51:29;10.15;;;2.20;;
25125;SDS011;13106;50.808;5.670;2022-09-09T07:53:57;9.73;;;2.25;;
25125;SDS011;13106;50.808;5.670;2022-09-09T07:56:23;8.73;;;1.88;;
25125;SDS011;13106;50.808;5.670;2022-09-09T07:58:50;8.60;;;2.15;;
25125;SDS011;13106;50.808;5.670;2022-09-09T08:01:17;7.47;;;2.00;;
25125;SDS011;13106;50.808;5.670;2022-09-09T08:03:44;8.15;;;2.10;;
25125;SDS011;13106;50.808;5.670;2022-09-09T08:06:11;8.57;;;2.15;;
25125;SDS011;13106;50.808;5.670;2022-09-09T08:08:38;8.57;;;2.00;;
25125;SDS011;13106;50.808;5.670;2022-09-09T08:11:10;8.90;;;2.00;;
25125;SDS011;13106;50.808;5.670;2022-09-09T08:13:37;7.38;;;1.80;;
25125;SDS011;13106;50.808;5.670;2022-09-09T08:16:04;10.30;;;1.92;;
25125;SDS011;13106;50.808;5.670;2022-09-09T08:18:30;8.05;;;2.00;;
25125;SDS011;13106;50.808;5.670;2022-09-09T08:20:56;9.43;;;2.10;;
25125;SDS011;13106;50.808;5.670;2022-09-09T08:23:22;8.57;;;1.65;;
25125;SDS011;13106;50.808;5.670;2022-09-09T08:25:48;11.98;;;2.17;;
25125;SDS011;13106;50.808;5.670;2022-09-09T08:28:15;12.90;;;2.10;;
25125;SDS011;13106;50.808;5.670;2022-09-09T08:30:41;13.25;;;1.88;;
25125;SDS011;13106;50.808;5.670;2022-09-09T08:33:08;8.80;;;1.77;;
25125;SDS011;13106;50.808;5.670;2022-09-09T08:35:35;6.43;;;1.38;;
25125;SDS011;13106;50.808;5.670;2022-09-09T08:38:01;8.70;;;1.70;;
25125;SDS011;13106;50.808;5.670;2022-09-09T08:40:28;6.97;;;1.90;;
25125;SDS011;13106;50.808;5.670;2022-09-09T08:42:58;8.13;;;1.70;;
25125;SDS011;13106;50.808;5.670;2022-09-09T08:50:35;5.97;;;1.90;;
25125;SDS011;13106;50.808;5.670;2022-09-09T08:55:54;7.28;;;1.98;;
25125;SDS011;13106;50.808;5.670;2022-09-09T08:58:27;8.10;;;1.88;;
25125;SDS011;13106;50.808;5.670;2022-09-09T09:11:26;7.72;;;1.40;;
25125;SDS011;13106;50.808;5.670;2022-09-09T09:14:02;7.07;;;1.38;;
25125;SDS011;13106;50.808;5.670;2022-09-09T09:16:34;6.78;;;1.83;;
25125;SDS011;13106;50.808;5.670;2022-09-09T09:19:01;8.80;;;1.70;;
25125;SDS011;13106;50.808;5.670;2022-09-09T09:24:36;7.13;;;1.33;;
25125;SDS011;13106;50.808;5.670;2022-09-09T09:27:08;6.43;;;1.75;;
25125;SDS011;13106;50.808;5.670;2022-09-09T09:29:37;10.77;;;1.75;;
25125;SDS011;13106;50.808;5.670;2022-09-09T09:32:04;5.82;;;1.40;;
25125;SDS011;13106;50.808;5.670;2022-09-09T09:34:30;8.07;;;1.70;;
25125;SDS011;13106;50.808;5.670;2022-09-09T09:36:56;3.92;;;1.20;;
25125;SDS011;13106;50.808;5.670;2022-09-09T09:39:27;7.03;;;1.20;;
25125;SDS011;13106;50.808;5.670;2022-09-09T09:41:53;9.65;;;1.88;;
25125;SDS011;13106;50.808;5.670;2022-09-09T09:44:31;12.32;;;1.83;;
25125;SDS011;13106;50.808;5.670;2022-09-09T09:47:10;9.18;;;1.50;;
25125;SDS011;13106;50.808;5.670;2022-09-09T09:49:37;7.35;;;1.65;;
25125;SDS011;13106;50.808;5.670;2022-09-09T09:52:03;9.25;;;1.60;;
25125;SDS011;13106;50.808;5.670;2022-09-09T09:54:31;6.63;;;1.67;;
25125;SDS011;13106;50.808;5.670;2022-09-09T09:57:11;6.07;;;1.70;;
25125;SDS011;13106;50.808;5.670;2022-09-09T09:59:37;7.75;;;1.55;;
25125;SDS011;13106;50.808;5.670;2022-09-09T10:02:13;6.90;;;1.42;;
25125;SDS011;13106;50.808;5.670;2022-09-09T10:04:40;11.43;;;1.85;;
25125;SDS011;13106;50.808;5.670;2022-09-09T10:07:10;8.80;;;1.40;;
25125;SDS011;13106;50.808;5.670;2022-09-09T10:12:05;5.18;;;1.35;;
25125;SDS011;13106;50.808;5.670;2022-09-09T10:17:10;4.88;;;1.38;;
25125;SDS011;13106;50.808;5.670;2022-09-09T10:19:38;5.03;;;1.60;;
25125;SDS011;13106;50.808;5.670;2022-09-09T10:27:33;5.68;;;1.77;;
25125;SDS011;13106;50.808;5.670;2022-09-09T10:35:27;3.13;;;1.00;;
25125;SDS011;13106;50.808;5.670;2022-09-09T10:42:55;5.88;;;1.40;;
25125;SDS011;13106;50.808;5.670;2022-09-09T10:50:38;6.85;;;1.40;;
25125;SDS011;13106;50.808;5.670;2022-09-09T10:53:24;3.78;;;1.45;;
25125;SDS011;13106;50.808;5.670;2022-09-09T10:55:56;6.40;;;1.60;;
25125;SDS011;13106;50.808;5.670;2022-09-09T11:01:06;3.95;;;1.00;;
25125;SDS011;13106;50.808;5.670;2022-09-09T11:03:34;3.65;;;1.00;;
25125;SDS011;13106;50.808;5.670;2022-09-09T11:06:04;8.20;;;1.08;;
25125;SDS011;13106;50.808;5.670;2022-09-09T11:08:31;9.63;;;1.38;;
25125;SDS011;13106;50.808;5.670;2022-09-09T11:13:42;7.95;;;1.55;;
25125;SDS011;13106;50.808;5.670;2022-09-09T11:16:21;5.40;;;1.80;;
25125;SDS011;13106;50.808;5.670;2022-09-09T11:18:48;11.05;;;1.58;;
25125;SDS011;13106;50.808;5.670;2022-09-09T11:21:37;5.55;;;1.30;;
25125;SDS011;13106;50.808;5.670;2022-09-09T11:24:02;4.70;;;1.02;;
25125;SDS011;13106;50.808;5.670;2022-09-09T11:26:33;6.40;;;1.45;;
25125;SDS011;13106;50.808;5.670;2022-09-09T11:29:40;8.18;;;1.50;;
25125;SDS011;13106;50.808;5.670;2022-09-09T11:40:03;7.32;;;1.80;;
25125;SDS011;13106;50.808;5.670;2022-09-09T11:42:34;10.00;;;2.05;;
25125;SDS011;13106;50.808;5.670;2022-09-09T11:45:20;4.53;;;1.25;;
25125;SDS011;13106;50.808;5.670;2022-09-09T11:47:56;8.55;;;1.30;;
25125;SDS011;13106;50.808;5.670;2022-09-09T11:52:49;6.78;;;1.40;;
25125;SDS011;13106;50.808;5.670;2022-09-09T11:55:25;6.10;;;1.33;;
25125;SDS011;13106;50.808;5.670;2022-09-09T11:58:01;3.97;;;1.20;;
25125;SDS011;13106;50.808;5.670;2022-09-09T12:00:32;6.13;;;1.55;;
25125;SDS011;13106;50.808;5.670;2022-09-09T12:02:58;4.35;;;1.25;;
25125;SDS011;13106;50.808;5.670;2022-09-09T12:05:34;8.00;;;1.20;;
25125;SDS011;13106;50.808;5.670;2022-09-09T12:08:02;8.02;;;1.23;;
25125;SDS011;13106;50.808;5.670;2022-09-09T12:10:32;5.90;;;1.73;;
25125;SDS011;13106;50.808;5.670;2022-09-09T12:13:19;6.82;;;1.70;;
25125;SDS011;13106;50.808;5.670;2022-09-09T12:15:51;6.07;;;1.40;;
25125;SDS011;13106;50.808;5.670;2022-09-09T12:18:22;3.70;;;1.17;;
25125;SDS011;13106;50.808;5.670;2022-09-09T12:20:54;4.55;;;1.23;;
25125;SDS011;13106;50.808;5.670;2022-09-09T12:26:12;3.78;;;1.10;;
25125;SDS011;13106;50.808;5.670;2022-09-09T12:33:51;7.55;;;1.40;;
25125;SDS011;13106;50.808;5.670;2022-09-09T12:36:24;4.40;;;1.30;;
25125;SDS011;13106;50.808;5.670;2022-09-09T12:38:53;6.82;;;1.67;;
25125;SDS011;13106;50.808;5.670;2022-09-09T12:41:21;2.90;;;1.10;;
25125;SDS011;13106;50.808;5.670;2022-09-09T12:43:48;4.68;;;1.10;;
25125;SDS011;13106;50.808;5.670;2022-09-09T12:46:28;5.22;;;1.60;;
25125;SDS011;13106;50.808;5.670;2022-09-09T12:48:56;4.47;;;1.20;;
25125;SDS011;13106;50.808;5.670;2022-09-09T12:51:28;3.78;;;1.20;;
25125;SDS011;13106;50.808;5.670;2022-09-09T12:53:56;6.60;;;1.65;;
25125;SDS011;13106;50.808;5.670;2022-09-09T12:56:23;6.68;;;1.30;;
25125;SDS011;13106;50.808;5.670;2022-09-09T12:58:51;4.85;;;1.50;;
25125;SDS011;13106;50.808;5.670;2022-09-09T13:01:21;4.18;;;1.00;;
25125;SDS011;13106;50.808;5.670;2022-09-09T13:03:47;5.70;;;1.20;;
25125;SDS011;13106;50.808;5.670;2022-09-09T13:06:18;4.82;;;1.40;;
25125;SDS011;13106;50.808;5.670;2022-09-09T13:08:47;5.30;;;1.27;;
25125;SDS011;13106;50.808;5.670;2022-09-09T13:11:14;5.47;;;1.50;;
25125;SDS011;13106;50.808;5.670;2022-09-09T13:13:42;5.53;;;1.27;;
25125;SDS011;13106;50.808;5.670;2022-09-09T13:16:28;7.93;;;1.10;;
25125;SDS011;13106;50.808;5.670;2022-09-09T13:18:56;6.35;;;1.20;;
25125;SDS011;13106;50.808;5.670;2022-09-09T13:21:37;4.57;;;1.30;;
25125;SDS011;13106;50.808;5.670;2022-09-09T13:24:04;4.90;;;1.10;;
25125;SDS011;13106;50.808;5.670;2022-09-09T13:26:32;4.13;;;1.20;;
25125;SDS011;13106;50.808;5.670;2022-09-09T13:32:03;3.75;;;1.00;;
25125;SDS011;13106;50.808;5.670;2022-09-09T13:34:33;6.28;;;1.17;;
25125;SDS011;13106;50.808;5.670;2022-09-09T13:37:04;4.57;;;0.90;;
25125;SDS011;13106;50.808;5.670;2022-09-09T13:39:31;4.95;;;1.40;;
25125;SDS011;13106;50.808;5.670;2022-09-09T13:41:57;3.78;;;0.90;;
25125;SDS011;13106;50.808;5.670;2022-09-09T13:44:25;8.13;;;1.20;;
25125;SDS011;13106;50.808;5.670;2022-09-09T13:47:01;5.28;;;1.20;;
25125;SDS011;13106;50.808;5.670;2022-09-09T13:49:29;5.20;;;1.02;;
25125;SDS011;13106;50.808;5.670;2022-09-09T13:54:32;4.65;;;0.82;;
25125;SDS011;13106;50.808;5.670;2022-09-09T13:56:58;3.38;;;1.00;;
25125;SDS011;13106;50.808;5.670;2022-09-09T13:59:26;2.97;;;0.95;;
25125;SDS011;13106;50.808;5.670;2022-09-09T14:01:52;3.60;;;0.82;;
25125;SDS011;13106;50.808;5.670;2022-09-09T14:04:18;5.13;;;1.00;;
25125;SDS011;13106;50.808;5.670;2022-09-09T14:06:47;3.53;;;1.02;;
25125;SDS011;13106;50.808;5.670;2022-09-09T14:09:14;6.95;;;1.48;;
25125;SDS011;13106;50.808;5.670;2022-09-09T14:11:41;6.82;;;1.10;;
25125;SDS011;13106;50.808;5.670;2022-09-09T14:14:07;4.45;;;1.00;;
25125;SDS011;13106;50.808;5.670;2022-09-09T14:16:33;3.75;;;1.08;;
25125;SDS011;13106;50.808;5.670;2022-09-09T14:19:00;3.55;;;1.00;;
25125;SDS011;13106;50.808;5.670;2022-09-09T14:21:27;8.48;;;1.38;;
25125;SDS011;13106;50.808;5.670;2022-09-09T14:23:53;4.05;;;1.10;;
25125;SDS011;13106;50.808;5.670;2022-09-09T14:26:20;4.78;;;1.10;;
25125;SDS011;13106;50.808;5.670;2022-09-09T14:28:46;3.33;;;0.90;;
25125;SDS011;13106;50.808;5.670;2022-09-09T14:31:13;5.88;;;1.00;;
25125;SDS011;13106;50.808;5.670;2022-09-09T14:33:39;5.00;;;1.10;;
25125;SDS011;13106;50.808;5.670;2022-09-09T14:36:06;4.53;;;1.13;;
25125;SDS011;13106;50.808;5.670;2022-09-09T14:38:32;3.08;;;1.10;;
25125;SDS011;13106;50.808;5.670;2022-09-09T14:41:02;3.45;;;1.00;;
25125;SDS011;13106;50.808;5.670;2022-09-09T14:43:28;4.10;;;1.00;;
25125;SDS011;13106;50.808;5.670;2022-09-09T14:45:56;2.80;;;0.80;;
25125;SDS011;13106;50.808;5.670;2022-09-09T14:48:22;5.43;;;0.90;;
25125;SDS011;13106;50.808;5.670;2022-09-09T14:50:48;3.00;;;0.85;;
25125;SDS011;13106;50.808;5.670;2022-09-09T14:53:14;4.15;;;0.80;;
25125;SDS011;13106;50.808;5.670;2022-09-09T14:55:42;6.05;;;1.10;;
25125;SDS011;13106;50.808;5.670;2022-09-09T14:58:08;3.10;;;1.05;;
25125;SDS011;13106;50.808;5.670;2022-09-09T15:00:34;4.90;;;1.30;;
25125;SDS011;13106;50.808;5.670;2022-09-09T15:03:01;5.13;;;1.25;;
25125;SDS011;13106;50.808;5.670;2022-09-09T15:05:27;3.63;;;1.35;;
25125;SDS011;13106;50.808;5.670;2022-09-09T15:07:53;4.38;;;1.00;;
25125;SDS011;13106;50.808;5.670;2022-09-09T15:10:19;3.88;;;1.00;;
25125;SDS011;13106;50.808;5.670;2022-09-09T15:12:46;4.18;;;0.88;;
25125;SDS011;13106;50.808;5.670;2022-09-09T15:15:12;2.72;;;0.68;;
25125;SDS011;13106;50.808;5.670;2022-09-09T15:17:38;3.75;;;0.90;;
25125;SDS011;13106;50.808;5.670;2022-09-09T15:20:04;3.15;;;1.15;;
25125;SDS011;13106;50.808;5.670;2022-09-09T15:22:31;4.68;;;1.25;;
25125;SDS011;13106;50.808;5.670;2022-09-09T15:24:57;5.68;;;1.10;;
25125;SDS011;13106;50.808;5.670;2022-09-09T15:27:23;3.35;;;0.93;;
25125;SDS011;13106;50.808;5.670;2022-09-09T15:29:49;6.28;;;1.40;;
25125;SDS011;13106;50.808;5.670;2022-09-09T15:32:16;2.90;;;0.90;;
25125;SDS011;13106;50.808;5.670;2022-09-09T15:34:42;2.45;;;1.10;;
25125;SDS011;13106;50.808;5.670;2022-09-09T15:37:11;3.30;;;1.20;;
25125;SDS011;13106;50.808;5.670;2022-09-09T15:39:40;3.92;;;1.33;;
25125;SDS011;13106;50.808;5.670;2022-09-09T15:42:06;3.38;;;1.08;;
25125;SDS011;13106;50.808;5.670;2022-09-09T15:44:40;4.65;;;1.05;;
25125;SDS011;13106;50.808;5.670;2022-09-09T15:47:07;4.38;;;1.10;;
25125;SDS011;13106;50.808;5.670;2022-09-09T15:49:34;6.00;;;1.08;;
25125;SDS011;13106;50.808;5.670;2022-09-09T15:52:00;5.18;;;1.52;;
25125;SDS011;13106;50.808;5.670;2022-09-09T15:54:33;2.28;;;0.98;;
25125;SDS011;13106;50.808;5.670;2022-09-09T15:57:00;3.30;;;1.00;;
25125;SDS011;13106;50.808;5.670;2022-09-09T15:59:28;2.90;;;0.80;;
25125;SDS011;13106;50.808;5.670;2022-09-09T16:01:54;4.63;;;1.20;;
25125;SDS011;13106;50.808;5.670;2022-09-09T16:04:21;4.00;;;1.10;;
25125;SDS011;13106;50.808;5.670;2022-09-09T16:06:51;3.88;;;1.17;;
25125;SDS011;13106;50.808;5.670;2022-09-09T16:09:17;4.15;;;1.20;;
25125;SDS011;13106;50.808;5.670;2022-09-09T16:11:43;6.60;;;1.00;;
25125;SDS011;13106;50.808;5.670;2022-09-09T16:14:09;3.50;;;0.90;;
25125;SDS011;13106;50.808;5.670;2022-09-09T16:16:36;6.07;;;1.50;;
25125;SDS011;13106;50.808;5.670;2022-09-09T16:19:03;3.47;;;1.13;;
25125;SDS011;13106;50.808;5.670;2022-09-09T16:21:31;6.25;;;1.17;;
25125;SDS011;13106;50.808;5.670;2022-09-09T16:23:58;4.18;;;0.93;;
25125;SDS011;13106;50.808;5.670;2022-09-09T16:26:25;4.03;;;1.23;;
25125;SDS011;13106;50.808;5.670;2022-09-09T16:28:52;6.95;;;1.30;;
25125;SDS011;13106;50.808;5.670;2022-09-09T16:31:20;10.32;;;1.70;;
25125;SDS011;13106;50.808;5.670;2022-09-09T16:33:47;10.70;;;2.10;;
25125;SDS011;13106;50.808;5.670;2022-09-09T16:36:17;6.18;;;1.50;;
25125;SDS011;13106;50.808;5.670;2022-09-09T16:38:43;5.45;;;1.23;;
25125;SDS011;13106;50.808;5.670;2022-09-09T16:41:10;7.57;;;1.58;;
25125;SDS011;13106;50.808;5.670;2022-09-09T16:43:37;4.35;;;1.35;;
25125;SDS011;13106;50.808;5.670;2022-09-09T16:46:03;6.28;;;1.50;;
25125;SDS011;13106;50.808;5.670;2022-09-09T16:48:33;4.47;;;1.40;;
25125;SDS011;13106;50.808;5.670;2022-09-09T16:51:04;5.80;;;1.50;;
25125;SDS011;13106;50.808;5.670;2022-09-09T16:53:31;6.88;;;1.92;;
25125;SDS011;13106;50.808;5.670;2022-09-09T16:55:57;6.95;;;2.42;;
25125;SDS011;13106;50.808;5.670;2022-09-09T16:58:23;8.45;;;1.67;;